createdAt,value
2023-12-10T00:01:03.578Z,98615.25
2023-12-10T00:03:31.916Z,98616.97
2023-12-10T00:06:07.192Z,98606.56
2023-12-10T00:08:41.674Z,98602.22
2023-12-10T00:11:09.081Z,98576.25
2023-12-10T00:13:36.462Z,98571.91
2023-12-10T00:16:03.344Z,98558.75
2023-12-10T00:18:31.538Z,98552.66
2023-12-10T00:20:58.739Z,98547.41
2023-12-10T00:23:25.750Z,98549.88
2023-12-10T00:25:52.649Z,98526.44
2023-12-10T00:28:19.598Z,98542.84
2023-12-10T00:30:48.834Z,98545.47
2023-12-10T00:33:17.432Z,98540.22
2023-12-10T00:35:44.627Z,98544.44
2023-12-10T00:38:13.669Z,98536.63
2023-12-10T00:40:40.974Z,98545.28
2023-12-10T00:43:07.981Z,98547.94
2023-12-10T00:45:37.051Z,98541.81
2023-12-10T00:48:07.585Z,98542.63
2023-12-10T00:50:34.966Z,98538.19
2023-12-10T00:53:05.170Z,98539.06
2023-12-10T00:55:32.414Z,98552.94
2023-12-10T00:57:59.430Z,98531.25
2023-12-10T01:00:26.316Z,98540.63
2023-12-10T01:02:53.699Z,98536.44
2023-12-10T01:05:20.786Z,98525.91
2023-12-10T01:07:50.208Z,98525.03
2023-12-10T01:10:17.118Z,98524.22
2023-12-10T01:12:46.295Z,98523.31
2023-12-10T01:15:13.658Z,98524.91
2023-12-10T01:17:43.211Z,98523.13
2023-12-10T01:20:10.862Z,98527.47
2023-12-10T01:22:38.690Z,98509.19
2023-12-10T01:25:06.298Z,98513.50
2023-12-10T01:27:33.468Z,98512.53
2023-12-10T01:30:00.473Z,98524.66
2023-12-10T01:32:27.688Z,98525.50
2023-12-10T01:34:55.021Z,98528.91
2023-12-10T01:37:22.520Z,98511.53
2023-12-10T01:39:51.014Z,98512.38
2023-12-10T01:42:18.502Z,98515.84
2023-12-10T01:44:45.314Z,98502.97
2023-12-10T01:47:13.456Z,98495.06
2023-12-10T01:49:40.720Z,98510.63
2023-12-10T01:52:09.163Z,98509.75
2023-12-10T01:54:41.271Z,98512.38
2023-12-10T01:57:09.174Z,98534.00
2023-12-10T01:59:37.721Z,98516.63
2023-12-10T02:02:06.883Z,98507.00
2023-12-10T02:04:33.725Z,98520.06
2023-12-10T02:07:01.415Z,98508.66
2023-12-10T02:09:28.548Z,98514.69
2023-12-10T02:11:55.963Z,98502.56
2023-12-10T02:14:23.016Z,98499.00
2023-12-10T02:16:51.099Z,98506.88
2023-12-10T02:19:18.499Z,98505.19
2023-12-10T02:21:47.786Z,98511.09
2023-12-10T02:24:22.396Z,98529.38
2023-12-10T02:26:49.600Z,98511.25
2023-12-10T02:29:17.478Z,98494.75
2023-12-10T02:31:44.461Z,98506.16
2023-12-10T02:34:11.425Z,98510.47
2023-12-10T02:36:38.917Z,98514.91
2023-12-10T02:39:07.685Z,98520.03
2023-12-10T02:41:34.756Z,98507.06
2023-12-10T02:44:01.642Z,98516.63
2023-12-10T02:46:28.615Z,98513.19
2023-12-10T02:48:56.656Z,98500.16
2023-12-10T02:51:23.584Z,98501.06
2023-12-10T02:53:51.534Z,98501.09
2023-12-10T02:56:19.621Z,98510.63
2023-12-10T02:58:46.462Z,98494.06
2023-12-10T03:01:13.817Z,98485.50
2023-12-10T03:03:40.964Z,98488.03
2023-12-10T03:06:08.655Z,98496.69
2023-12-10T03:08:36.851Z,98496.69
2023-12-10T03:11:03.707Z,98493.97
2023-12-10T03:13:31.842Z,98500.94
2023-12-10T03:15:59.294Z,98493.88
2023-12-10T03:18:27.895Z,98474.94
2023-12-10T03:20:55.086Z,98475.06
2023-12-10T03:23:22.458Z,98481.88
2023-12-10T03:25:49.507Z,98476.56
2023-12-10T03:28:16.439Z,98467.94
2023-12-10T03:30:43.465Z,98466.13
2023-12-10T03:33:11.540Z,98476.44
2023-12-10T03:35:38.843Z,98462.47
2023-12-10T03:38:05.716Z,98467.50
2023-12-10T03:40:32.717Z,98475.47
2023-12-10T03:42:59.846Z,98475.41
2023-12-10T03:45:27.081Z,98490.16
2023-12-10T03:47:56.074Z,98497.09
2023-12-10T03:50:23.095Z,98484.94
2023-12-10T03:52:50.017Z,98487.53
2023-12-10T03:55:18.373Z,98484.97
2023-12-10T03:57:47.425Z,98483.28
2023-12-10T04:00:14.640Z,98475.47
2023-12-10T04:02:41.907Z,98470.44
2023-12-10T04:05:13.762Z,98467.03
2023-12-10T04:07:42.039Z,98474.97
2023-12-10T04:10:10.669Z,98487.13
2023-12-10T04:12:39.109Z,98482.13
2023-12-10T04:15:07.022Z,98496.13
2023-12-10T04:17:34.431Z,98505.00
2023-12-10T04:20:01.930Z,98491.34
2023-12-10T04:22:29.494Z,98514.00
2023-12-10T04:24:56.832Z,98505.50
2023-12-10T04:27:24.512Z,98509.94
2023-12-10T04:29:52.485Z,98509.19
2023-12-10T04:32:19.553Z,98490.06
2023-12-10T04:34:54.022Z,98501.38
2023-12-10T04:37:21.167Z,98516.19
2023-12-10T04:39:49.693Z,98510.13
2023-12-10T04:42:19.872Z,98506.66
2023-12-10T04:44:47.089Z,98509.38
2023-12-10T04:47:14.981Z,98513.69
2023-12-10T04:49:42.431Z,98517.19
2023-12-10T04:52:09.879Z,98527.72
2023-12-10T04:54:37.073Z,98529.56
2023-12-10T04:57:04.699Z,98528.75
2023-12-10T04:59:32.008Z,98533.88
2023-12-10T05:01:58.801Z,98536.53
2023-12-10T05:04:26.271Z,98521.84
2023-12-10T05:06:56.228Z,98531.31
2023-12-10T05:09:23.289Z,98541.63
2023-12-10T05:11:50.201Z,98535.53
2023-12-10T05:14:17.178Z,98532.88
2023-12-10T05:16:47.018Z,98535.31
2023-12-10T05:19:14.215Z,98529.19
2023-12-10T05:21:41.321Z,98549.16
2023-12-10T05:24:09.751Z,98537.75
2023-12-10T05:26:39.404Z,98543.75
2023-12-10T05:29:07.618Z,98554.19
2023-12-10T05:31:35.595Z,98555.94
2023-12-10T05:34:02.697Z,98557.53
2023-12-10T05:36:31.145Z,98544.47
2023-12-10T05:38:59.019Z,98552.22
2023-12-10T05:41:26.111Z,98559.09
2023-12-10T05:43:52.865Z,98565.19
2023-12-10T05:46:20.221Z,98550.44
2023-12-10T05:48:47.430Z,98564.34
2023-12-10T05:51:16.902Z,98567.75
2023-12-10T05:53:44.297Z,98567.81
2023-12-10T05:56:11.284Z,98571.25
2023-12-10T05:58:38.148Z,98559.91
2023-12-10T06:01:05.322Z,98565.91
2023-12-10T06:03:32.848Z,98569.38
2023-12-10T06:06:01.394Z,98577.13
2023-12-10T06:08:30.436Z,98570.06
2023-12-10T06:10:58.540Z,98568.25
2023-12-10T06:13:27.683Z,98569.13
2023-12-10T06:15:59.000Z,98566.41
2023-12-10T06:18:26.054Z,98574.22
2023-12-10T06:20:52.905Z,98577.56
2023-12-10T06:23:20.935Z,98577.53
2023-12-10T06:25:49.972Z,98581.81
2023-12-10T06:28:16.819Z,98589.59
2023-12-10T06:30:43.790Z,98598.31
2023-12-10T06:33:10.859Z,98605.16
2023-12-10T06:35:38.294Z,98616.34
2023-12-10T06:38:05.103Z,98615.44
2023-12-10T06:40:33.018Z,98616.38
2023-12-10T06:43:02.204Z,98622.28
2023-12-10T06:45:29.667Z,98625.84
2023-12-10T06:47:56.491Z,98639.69
2023-12-10T06:50:27.727Z,98636.97
2023-12-10T06:52:54.929Z,98652.59
2023-12-10T06:55:21.881Z,98655.22
2023-12-10T06:57:54.410Z,98657.00
2023-12-10T07:00:22.559Z,98663.03
2023-12-10T07:02:52.857Z,98662.97
2023-12-10T07:05:19.837Z,98667.38
2023-12-10T07:07:46.839Z,98678.59
2023-12-10T07:10:15.907Z,98669.94
2023-12-10T07:12:42.941Z,98683.00
2023-12-10T07:15:10.762Z,98678.53
2023-12-10T07:17:39.055Z,98678.53
2023-12-10T07:20:10.725Z,98687.25
2023-12-10T07:22:38.632Z,98702.00
2023-12-10T07:25:08.379Z,98701.94
2023-12-10T07:27:40.489Z,98704.44
2023-12-10T07:30:09.211Z,98695.88
2023-12-10T07:32:36.334Z,98695.88
2023-12-10T07:35:04.934Z,98694.94
2023-12-10T07:37:32.302Z,98698.47
2023-12-10T07:40:00.391Z,98709.72
2023-12-10T07:42:28.313Z,98707.19
2023-12-10T07:44:55.999Z,98718.50
2023-12-10T07:47:23.049Z,98719.34
2023-12-10T07:49:57.096Z,98706.25
2023-12-10T07:52:24.206Z,98717.56
2023-12-10T07:54:56.171Z,98705.25
2023-12-10T07:57:24.457Z,98715.72
2023-12-10T07:59:51.558Z,98724.50
2023-12-10T08:02:19.573Z,98729.69
2023-12-10T08:04:46.802Z,98740.03
2023-12-10T08:07:14.137Z,98738.28
2023-12-10T08:09:42.153Z,98736.59
2023-12-10T08:12:09.557Z,98732.34
2023-12-10T08:14:36.778Z,98727.09
2023-12-10T08:17:06.877Z,98736.63
2023-12-10T08:19:34.192Z,98740.88
2023-12-10T08:22:03.096Z,98750.44
2023-12-10T08:24:30.233Z,98749.50
2023-12-10T08:26:57.349Z,98752.91
2023-12-10T08:29:25.268Z,98752.88
2023-12-10T08:31:53.180Z,98757.22
2023-12-10T08:34:20.215Z,98762.38
2023-12-10T08:36:47.059Z,98762.19
2023-12-10T08:39:14.761Z,98764.50
2023-12-10T08:41:42.585Z,98772.22
2023-12-10T08:44:12.955Z,98771.50
2023-12-10T08:46:40.076Z,98791.66
2023-12-10T08:49:10.138Z,98785.75
2023-12-10T08:51:38.604Z,98788.41
2023-12-10T08:54:07.008Z,98789.16
2023-12-10T08:56:34.858Z,98790.94
2023-12-10T08:59:03.025Z,98794.41
2023-12-10T09:01:31.573Z,98804.16
2023-12-10T09:04:01.086Z,98811.19
2023-12-10T09:06:28.515Z,98806.00
2023-12-10T09:08:55.504Z,98802.47
2023-12-10T09:11:22.777Z,98808.63
2023-12-10T09:13:50.862Z,98807.69
2023-12-10T09:16:20.377Z,98806.00
2023-12-10T09:18:47.397Z,98806.81
2023-12-10T09:21:14.711Z,98803.47
2023-12-10T09:23:42.455Z,98792.13
2023-12-10T09:26:09.555Z,98797.25
2023-12-10T09:28:38.139Z,98800.66
2023-12-10T09:31:05.121Z,98797.25
2023-12-10T09:33:33.381Z,98804.13
2023-12-10T09:36:01.147Z,98788.50
2023-12-10T09:38:28.505Z,98797.09
2023-12-10T09:40:55.558Z,98795.22
2023-12-10T09:43:23.173Z,98795.06
2023-12-10T09:45:51.431Z,98789.91
2023-12-10T09:48:19.526Z,98797.81
2023-12-10T09:50:46.742Z,98793.41
2023-12-10T09:53:15.753Z,98795.94
2023-12-10T09:55:43.780Z,98794.13
2023-12-10T09:58:10.797Z,98792.31
2023-12-10T10:00:39.317Z,98793.41
2023-12-10T10:03:08.371Z,98801.94
2023-12-10T10:05:37.338Z,98803.59
2023-12-10T10:08:05.008Z,98808.81
2023-12-10T10:10:32.831Z,98796.88
2023-12-10T10:13:01.444Z,98813.22
2023-12-10T10:15:30.640Z,98804.53
2023-12-10T10:17:59.116Z,98809.75
2023-12-10T10:20:27.588Z,98796.69
2023-12-10T10:22:58.605Z,98804.44
2023-12-10T10:25:26.006Z,98804.34
2023-12-10T10:27:53.901Z,98811.19
2023-12-10T10:30:21.825Z,98813.63
2023-12-10T10:32:50.357Z,98813.72
2023-12-10T10:35:17.699Z,98805.16
2023-12-10T10:37:44.759Z,98814.97
2023-12-10T10:40:12.341Z,98820.06
2023-12-10T10:42:39.787Z,98818.31
2023-12-10T10:45:10.202Z,98826.13
2023-12-10T10:47:38.539Z,98826.00
2023-12-10T10:50:21.529Z,98827.22
2023-12-10T10:52:53.619Z,98823.50
2023-12-10T10:55:22.052Z,98818.25
2023-12-10T10:57:49.091Z,98820.81
2023-12-10T11:00:21.828Z,98817.34
2023-12-10T11:02:54.284Z,98823.50
2023-12-10T11:05:36.469Z,98822.75
2023-12-10T11:08:09.748Z,98820.66
2023-12-10T11:10:43.449Z,98818.75
2023-12-10T11:13:10.514Z,98820.34
2023-12-10T11:15:38.046Z,98822.91
2023-12-10T11:18:08.004Z,98818.53
2023-12-10T11:20:48.519Z,98817.69
2023-12-10T11:23:18.605Z,98821.06
2023-12-10T11:25:48.235Z,98824.59
2023-12-10T11:28:18.787Z,98815.72
2023-12-10T11:30:50.867Z,98811.25
2023-12-10T11:33:20.076Z,98817.31
2023-12-10T11:36:17.514Z,98822.28
2023-12-10T11:38:37.818Z,98819.66
2023-12-10T11:41:05.329Z,98824.88
2023-12-10T11:43:33.248Z,98824.81
2023-12-10T11:46:00.461Z,98826.53
2023-12-10T11:48:28.413Z,98835.03
2023-12-10T11:50:56.801Z,98827.84
2023-12-10T11:53:24.957Z,98843.44
2023-12-10T11:55:53.781Z,98832.78
2023-12-10T11:58:28.530Z,98839.47
2023-12-10T12:01:06.558Z,98849.63
2023-12-10T12:03:36.179Z,98838.38
2023-12-10T12:06:05.697Z,98844.22
2023-12-10T12:08:33.384Z,98852.19
2023-12-10T12:11:00.722Z,98846.53
2023-12-10T12:13:32.078Z,98861.88
2023-12-10T12:15:59.142Z,98854.84
2023-12-10T12:18:28.988Z,98849.69
2023-12-10T12:20:56.156Z,98851.97
2023-12-10T12:23:23.077Z,98845.09
2023-12-10T12:25:51.011Z,98856.59
2023-12-10T12:28:21.448Z,98852.75
2023-12-10T12:30:48.378Z,98864.59
2023-12-10T12:33:17.377Z,98860.13
2023-12-10T12:35:44.390Z,98864.00
2023-12-10T12:38:12.432Z,98869.94
2023-12-10T12:40:39.281Z,98874.19
2023-12-10T12:43:06.294Z,98863.09
2023-12-10T12:45:34.851Z,98865.72
2023-12-10T12:48:02.272Z,98867.50
2023-12-10T12:50:31.657Z,98868.31
2023-12-10T12:53:00.807Z,98868.34
2023-12-10T12:55:28.613Z,98874.41
2023-12-10T12:57:56.242Z,98877.03
2023-12-10T13:00:23.771Z,98886.59
2023-12-10T13:02:51.236Z,98879.66
2023-12-10T13:05:18.294Z,98884.81
2023-12-10T13:07:47.197Z,98880.44
2023-12-10T13:10:15.300Z,98877.81
2023-12-10T13:12:43.235Z,98877.94
2023-12-10T13:15:10.861Z,98881.31
2023-12-10T13:17:39.813Z,98882.97
2023-12-10T13:20:07.947Z,98883.03
2023-12-10T13:22:35.202Z,98885.72
2023-12-10T13:25:06.280Z,98896.28
2023-12-10T13:27:35.298Z,98891.09
2023-12-10T13:30:02.332Z,98894.31
2023-12-10T13:32:29.252Z,98900.22
2023-12-10T13:34:56.681Z,98901.94
2023-12-10T13:37:23.805Z,98892.59
2023-12-10T13:39:51.715Z,98896.25
2023-12-10T13:42:22.016Z,98900.94
2023-12-10T13:44:49.001Z,98900.16
2023-12-10T13:47:16.635Z,98911.75
2023-12-10T13:49:44.669Z,98913.47
2023-12-10T13:52:13.183Z,98913.16
2023-12-10T13:54:40.439Z,98899.28
2023-12-10T13:57:07.310Z,98897.25
2023-12-10T13:59:35.366Z,98900.66
2023-12-10T14:02:10.061Z,98907.25
2023-12-10T14:04:37.070Z,98903.66
2023-12-10T14:07:04.649Z,98903.00
2023-12-10T14:09:33.921Z,98901.91
2023-12-10T14:12:01.739Z,98907.81
2023-12-10T14:14:28.743Z,98908.56
2023-12-10T14:16:55.888Z,98909.84
2023-12-10T14:19:23.061Z,98906.53
2023-12-10T14:21:54.165Z,98915.94
2023-12-10T14:24:22.387Z,98916.66
2023-12-10T14:26:49.821Z,98907.38
2023-12-10T14:29:17.444Z,98910.88
2023-12-10T14:31:48.623Z,98923.31
2023-12-10T14:34:15.849Z,98917.53
2023-12-10T14:36:43.609Z,98926.56
2023-12-10T14:39:11.664Z,98930.06
2023-12-10T14:41:40.063Z,98943.19
2023-12-10T14:44:07.709Z,98932.41
2023-12-10T14:49:19.338Z,98934.88
2023-12-10T14:51:48.315Z,98935.59
2023-12-10T14:54:17.489Z,98946.84
2023-12-10T14:56:44.657Z,98954.81
2023-12-10T14:59:12.638Z,98954.75
2023-12-10T15:01:39.654Z,98946.19
2023-12-10T15:04:07.159Z,98949.47
2023-12-10T15:06:34.190Z,98945.16
2023-12-10T15:09:03.581Z,98952.22
2023-12-10T15:11:33.539Z,98943.78
2023-12-10T15:14:00.856Z,98951.47
2023-12-10T15:16:27.723Z,98953.63
2023-12-10T15:18:55.160Z,98953.69
2023-12-10T15:21:23.434Z,98961.00
2023-12-10T15:23:50.642Z,98954.94
2023-12-10T15:26:19.576Z,98965.69
2023-12-10T15:28:47.843Z,98969.91
2023-12-10T15:31:15.328Z,98973.53
2023-12-10T15:33:42.634Z,98971.72
2023-12-10T15:36:14.737Z,98974.50
2023-12-10T15:38:42.321Z,98971.22
2023-12-10T15:41:09.878Z,98975.69
2023-12-10T15:43:36.948Z,98977.41
2023-12-10T15:46:04.297Z,98978.25
2023-12-10T15:48:32.369Z,98977.34
2023-12-10T15:51:02.995Z,98984.41
2023-12-10T15:53:32.102Z,98987.06
2023-12-10T15:55:59.397Z,98982.56
2023-12-10T15:58:27.893Z,98982.84
2023-12-10T16:00:54.967Z,98989.84
2023-12-10T16:03:23.798Z,98981.81
2023-12-10T16:05:51.639Z,98980.88
2023-12-10T16:08:20.826Z,98994.94
2023-12-10T16:10:48.244Z,99001.16
2023-12-10T16:13:20.357Z,99010.69
2023-12-10T16:15:49.837Z,98993.19
2023-12-10T16:18:16.854Z,98986.03
2023-12-10T16:20:46.416Z,98988.69
2023-12-10T16:23:15.826Z,98989.56
2023-12-10T16:25:42.613Z,98999.38
2023-12-10T16:28:10.839Z,99001.03
2023-12-10T16:30:40.129Z,99002.06
2023-12-10T16:33:07.148Z,98986.72
2023-12-10T16:35:34.001Z,98998.78
2023-12-10T16:38:02.727Z,98992.69
2023-12-10T16:40:29.976Z,98998.91
2023-12-10T16:43:00.076Z,98994.00
2023-12-10T16:45:28.066Z,98984.75
2023-12-10T16:47:56.499Z,98989.91
2023-12-10T16:50:23.357Z,98996.41
2023-12-10T16:52:52.503Z,99000.13
2023-12-10T16:55:22.056Z,98998.69
2023-12-10T16:57:50.389Z,98990.03
2023-12-10T17:00:18.803Z,98997.13
2023-12-10T17:02:46.803Z,98995.03
2023-12-10T17:05:13.932Z,98989.44
2023-12-10T17:07:43.248Z,98990.66
2023-12-10T17:10:11.823Z,98991.59
2023-12-10T17:12:39.739Z,98991.22
2023-12-10T17:15:07.947Z,98999.91
2023-12-10T17:17:35.547Z,99000.69
2023-12-10T17:20:03.104Z,99004.22
2023-12-10T17:22:30.123Z,99001.66
2023-12-10T17:24:58.631Z,99005.81
2023-12-10T17:27:25.655Z,99004.22
2023-12-10T17:29:53.123Z,99005.13
2023-12-10T17:32:19.983Z,99003.31
2023-12-10T17:34:48.033Z,98988.22
2023-12-10T17:37:14.839Z,98993.09
2023-12-10T17:39:41.804Z,98992.91
2023-12-10T17:42:10.955Z,98984.41
2023-12-10T17:44:47.300Z,98973.63
2023-12-10T17:47:21.826Z,98972.47
2023-12-10T17:49:49.226Z,98975.88
2023-12-10T17:52:16.746Z,98972.25
2023-12-10T17:54:44.067Z,98969.31
2023-12-10T17:57:12.773Z,98968.38
2023-12-10T17:59:40.065Z,98964.00
2023-12-10T18:02:07.969Z,98972.44
2023-12-10T18:04:34.830Z,98965.47
2023-12-10T18:07:01.952Z,98963.94
2023-12-10T18:09:30.163Z,98963.94
2023-12-10T18:11:58.273Z,98967.47
2023-12-10T18:14:26.493Z,98964.16
2023-12-10T18:16:53.823Z,98969.66
2023-12-10T18:19:21.226Z,98962.81
2023-12-10T18:21:49.656Z,98963.06
2023-12-10T18:24:18.090Z,98968.16
2023-12-10T18:26:48.954Z,98963.88
2023-12-10T18:29:17.204Z,98973.63
2023-12-10T18:31:46.248Z,98978.03
2023-12-10T18:34:13.740Z,98968.63
2023-12-10T18:36:41.137Z,98972.22
2023-12-10T18:39:09.459Z,98959.28
2023-12-10T18:41:36.464Z,98967.16
2023-12-10T18:44:03.748Z,98960.25
2023-12-10T18:46:31.990Z,98966.41
2023-12-10T18:48:59.345Z,98960.44
2023-12-10T18:51:26.348Z,98964.84
2023-12-10T18:53:53.643Z,98957.06
2023-12-10T18:56:21.905Z,98951.94
2023-12-10T18:58:50.292Z,98958.97
2023-12-10T19:01:17.606Z,98958.97
2023-12-10T19:03:48.494Z,98962.41
2023-12-10T19:06:15.981Z,98965.16
2023-12-10T19:08:43.329Z,98961.56
2023-12-10T19:11:13.832Z,98957.06
2023-12-10T19:13:41.182Z,98960.13
2023-12-10T19:16:08.586Z,98955.16
2023-12-10T19:18:41.937Z,98952.56
2023-12-10T19:21:11.849Z,98951.78
2023-12-10T19:23:42.081Z,98946.53
2023-12-10T19:26:13.049Z,98937.38
2023-12-10T19:28:40.271Z,98940.56
2023-12-10T19:31:07.535Z,98938.84
2023-12-10T19:33:35.302Z,98928.19
2023-12-10T19:36:02.567Z,98942.13
2023-12-10T19:38:29.515Z,98936.03
2023-12-10T19:40:58.407Z,98938.50
2023-12-10T19:43:26.445Z,98946.44
2023-12-10T19:45:56.852Z,98932.38
2023-12-10T19:48:26.385Z,98935.84
2023-12-10T19:50:57.172Z,98943.75
2023-12-10T19:53:24.390Z,98931.72
2023-12-10T19:55:51.973Z,98929.84
2023-12-10T19:58:19.407Z,98928.94
2023-12-10T20:00:48.214Z,98922.88
2023-12-10T20:03:18.779Z,98919.34
2023-12-10T20:05:45.834Z,98926.50
2023-12-10T20:08:12.751Z,98930.31
2023-12-10T20:10:42.542Z,98937.16
2023-12-10T20:13:11.825Z,98933.09
2023-12-10T20:15:39.284Z,98928.28
2023-12-10T20:18:06.822Z,98923.44
2023-12-10T20:20:35.107Z,98915.78
2023-12-10T20:23:02.068Z,98912.25
2023-12-10T20:25:32.909Z,98914.22
2023-12-10T20:28:03.279Z,98899.56
2023-12-10T20:30:33.054Z,98898.78
2023-12-10T20:33:00.538Z,98896.22
2023-12-10T20:35:28.761Z,98894.59
2023-12-10T20:38:00.501Z,98895.38
2023-12-10T20:40:28.578Z,98891.06
2023-12-10T20:42:57.700Z,98885.03
2023-12-10T20:45:24.689Z,98880.59
2023-12-10T20:47:52.646Z,98880.59
2023-12-10T20:50:22.344Z,98888.31
2023-12-10T20:52:49.604Z,98883.09
2023-12-10T20:55:16.827Z,98882.22
2023-12-10T20:57:45.065Z,98890.03
2023-12-10T21:00:13.471Z,98887.34
2023-12-10T21:02:40.683Z,98884.72
2023-12-10T21:05:08.266Z,98885.50
2023-12-10T21:07:35.729Z,98886.44
2023-12-10T21:10:03.237Z,98881.84
2023-12-10T21:12:30.577Z,98862.69
2023-12-10T21:15:00.897Z,98858.19
2023-12-10T21:17:29.175Z,98853.75
2023-12-10T21:19:58.406Z,98847.53
2023-12-10T21:22:26.387Z,98853.63
2023-12-10T21:24:53.298Z,98851.06
2023-12-10T21:27:20.198Z,98844.19
2023-12-10T21:29:47.121Z,98840.66
2023-12-10T21:32:16.119Z,98838.88
2023-12-10T21:34:45.129Z,98836.09
2023-12-10T21:37:12.960Z,98830.63
2023-12-10T21:39:40.383Z,98823.50
2023-12-10T21:42:07.648Z,98824.22
2023-12-10T21:44:35.258Z,98822.97
2023-12-10T21:47:02.535Z,98829.78
2023-12-10T21:49:30.021Z,98824.38
2023-12-10T21:51:57.431Z,98819.03
2023-12-10T21:54:27.014Z,98813.69
2023-12-10T21:56:54.493Z,98808.19
2023-12-10T21:59:23.241Z,98814.16
2023-12-10T22:01:50.999Z,98812.31
2023-12-10T22:04:18.128Z,98807.53
2023-12-10T22:06:46.232Z,98796.97
2023-12-10T22:09:15.145Z,98790.16
2023-12-10T22:11:44.307Z,98793.75
2023-12-10T22:14:11.592Z,98791.16
2023-12-10T22:16:39.978Z,98786.63
2023-12-10T22:19:07.236Z,98783.81
2023-12-10T22:21:35.914Z,98794.28
2023-12-10T22:24:03.071Z,98789.13
2023-12-10T22:26:32.508Z,98785.91
2023-12-10T22:29:00.631Z,98788.38
2023-12-10T22:31:27.975Z,98784.19
2023-12-10T22:33:54.957Z,98783.34
2023-12-10T22:36:22.794Z,98780.66
2023-12-10T22:38:50.805Z,98789.50
2023-12-10T22:41:17.696Z,98799.22
2023-12-10T22:43:46.790Z,98782.94
2023-12-10T22:46:13.710Z,98772.41
2023-12-10T22:48:44.778Z,98766.47
2023-12-10T22:51:12.218Z,98746.44
2023-12-10T22:53:41.201Z,98745.53
2023-12-10T22:56:08.441Z,98744.22
2023-12-10T22:58:36.589Z,98740.38
2023-12-10T23:01:05.008Z,98739.72
2023-12-10T23:03:32.132Z,98735.31
2023-12-10T23:05:58.925Z,98739.72
2023-12-10T23:08:25.888Z,98742.41
2023-12-10T23:10:53.054Z,98736.41
2023-12-10T23:13:20.697Z,98726.78
2023-12-10T23:16:15.494Z,98727.88
2023-12-10T23:18:46.033Z,98713.66
2023-12-10T23:21:13.477Z,98702.75
2023-12-10T23:23:40.987Z,98722.78
2023-12-10T23:26:07.786Z,98712.06
2023-12-10T23:28:35.738Z,98706.41
2023-12-10T23:31:03.838Z,98690.13
2023-12-10T23:33:33.264Z,98693.13
2023-12-10T23:36:00.783Z,98686.78
2023-12-10T23:38:27.662Z,98679.50
2023-12-10T23:40:54.591Z,98681.13
2023-12-10T23:43:21.490Z,98692.56
2023-12-10T23:45:50.031Z,98688.47
2023-12-10T23:48:19.405Z,98685.47
2023-12-10T23:50:47.027Z,98679.03
2023-12-10T23:53:15.040Z,98666.59
2023-12-10T23:55:41.905Z,98671.47
2023-12-10T23:58:09.975Z,98678.78
